Etihad Airways Virtual Airport Information Service

Abu Dhabi International Airport

ICAO: OMAA Country: United Arab Emirates
Latitude: 24.433 Longitude: 54.6511
Latest Arrival : SVA572 (OERK-OMAA) Latest Departure : SVA573 (OMAA-OERK)


WX CaptureLIVE
Data provided by noaa.gov | Recorded at 13:19:08

METAR : OMAA 111300Z 34013KT 290V360 CAVOK 41/18 Q0993 NOSIG

TAF : OMAA 111100Z 1112/1218 34013KT 8000 NSC BECMG 1118/1120 07005KT BECMG 1202/1204 15014KT BECMG 1210/1212 34011KT


Runway Data for OMAA
Data provided by openaviationdata.com

Runway ID Mag Var Hdg Length Elevation Surface ILS Freq ILS Id ILS Slope

Abu Dhabi International Airport, United Arab Emirates
Use only for reference purposes